Charlottesville Albemarle Airport
KCHO : now visible

Airfield :











YOU CAN JOIN US ON...

 
LOGIN :

Register | Disclaimer

   EN    FR    IT 

 









Legend :    VFR   Marginal VFR   IFR   Intensive IFR   Very Intensive IFR
Visi :
Ceiling :
>= 8 km
>= 3000ft
5 to 8 km
1000 to 3000 ft
1500m to 5 km
500 to 1000 ft
800 to 1500m
200 to 500 ft
< 800m
< 200 ft
Symbols :   Thunderstorms  Fog  Heavy snow  Heavy precipitations  Wind > 20 kt







- Airport Elevation : 639 ft
- IATA code : CHO


KCHO - Charlottesville Albemarle

CURRENT METAR :
  • 181953Z 00000KT 10SM CLR 33/22 A2990 RMK AO2 LTG DSNT SW SLP116 TS DSNT S AND SW MOV E T03280217

EXPIRED METARs :
  • 181942Z 28003KT 10SM VCTS FEW049 33/21 A2990 RMK AO2 LTG DSNT S AND SW TS DSNT S AND SW MOV E T03330211
  • 181853Z VRB05KT 10SM CLR 34/22 A2990 RMK AO2 LTG DSNT SW AND W SLP116 T03440217
  • 181753Z VRB03KT 10SM SCT043 SCT060 BKN085 33/21 A2991 RMK AO2 SLP119 T03330211 10339 20272 58008

TAF KCHO
Valid from the 18 at 18:00 until the 19 at 18:00 UTC


181724Z 1818/1918 24005KT P6SM VCTS BKN045CB
FM190000 VRB03KT P6SM SCT045
FM191400 00000KT P6SM FEW080
KZDC FIR / North America



MET'MAP, your aeronautical weather chart ! - Copyright ORBIFLY December 2007 - Disclaimer

ORBIFLY MET'MAP TEAM :

Programming & Development : Alexandra Zaïnal
Concept & Development : Baudouin d'Aumeries
Co-Development & Prog : Marc-Olivier Méhu
Technical & hardware support : Manuel Goepfert

Contact : metmap@orbifly.com




SOURCES & CREDITS :

   NOAA       Earth
Advisory